Time;durP1;ratioP1;P1;durP2;ratioP2;P2;SDS_P1;SDS_P2;PMS_P1;PMS_P2;Temp;Humidity;BMP_temperature;BMP_pressure;BME280_temperature;BME280_humidity;BME280_pressure;Samples;Min_cycle;Max_cycle;Signal;HPM_P1;HPM_P2
2022/09/24 00:02:18;;;;;;;;;;;;;;;12.16;61.69;101296.75;4943337;29;19932;-54
2022/09/24 00:04:44;;;;;;;;;;;;;;;12.15;61.71;101289.75;4947961;29;19977;-56
2022/09/24 00:07:09;;;;;;;;;;;;;;;12.15;61.55;101290.63;4944083;28;19930;-56
2022/09/24 00:09:34;;;;;;;;;;;;;;;12.14;61.61;101293.34;4927960;29;19973;-56
2022/09/24 00:12:01;;;;;;;;;;;;;;;12.13;61.78;101281.94;4944945;28;19926;-53
2022/09/24 00:14:26;;;;;;;;;;;;;;;12.13;61.74;101281.94;4940373;28;19941;-54
2022/09/24 00:16:51;;;;;;;;;;;;;;;12.13;61.67;101283.72;4930376;28;19930;-55
2022/09/24 00:19:17;;;;;;;;;;;;;;;12.13;61.78;101281.06;4941285;28;20310;-54
2022/09/24 00:21:42;;;;;;;;;;;;;;;12.12;61.67;101279.38;4953534;28;19927;-53
2022/09/24 00:26:48;;;;;;;;;;;;;;;12.10;61.70;101270.72;4948683;28;19918;-53
2022/09/24 00:26:56;;;;;;;;;;;;;;;12.08;61.88;101276.06;4947340;28;19925;-54
2022/09/24 00:29:22;;;;;;;;;;;;;;;12.07;61.94;101277.00;4940131;29;19926;-55
2022/09/24 00:31:49;;;;;;;;;;;;;;;12.05;61.85;101273.59;4938322;29;19926;-52
2022/09/24 00:34:14;;;;;;;;;;;;;;;12.04;61.70;101263.97;4939226;28;19930;-54
2022/09/24 00:36:40;;;;;;;;;;;;;;;12.03;61.99;101270.19;4949269;28;19929;-53
2022/09/24 00:39:05;;;;;;;;;;;;;;;12.02;61.91;101269.34;4940719;28;20019;-55
2022/09/24 00:41:32;;;;;;;;;;;;;;;12.03;61.79;101270.19;4940899;28;20012;-55
2022/09/24 00:43:58;;;;;;;;;;;;;;;12.03;61.86;101264.91;4941180;28;19930;-53
2022/09/24 00:46:24;;;;;;;;;;;;;;;12.02;61.85;101263.22;4936773;28;20813;-54
2022/09/24 00:48:50;;;;;;;;;;;;;;;12.03;61.72;101264.91;4942915;28;19925;-53
2022/09/24 00:51:18;;;;;;;;;;;;;;;12.02;61.85;101263.22;4941648;28;19926;-55
2022/09/24 00:53:44;;;;;;;;;;;;;;;11.99;62.08;101258.97;4945396;28;19950;-54
2022/09/24 00:56:14;;;;;;;;;;;;;;;11.97;62.00;101252.03;4942902;28;20349;-53
2022/09/24 00:58:42;;;;;;;;;;;;;;;11.98;62.05;101256.38;4941011;29;20017;-53
2022/09/24 01:01:07;;;;;;;;;;;;;;;11.98;61.91;101253.75;4939189;28;21905;-53
2022/09/24 01:03:39;;;;;;;;;;;;;;;11.99;62.09;101258.13;4939238;28;20386;-55
2022/09/24 01:06:06;;;;;;;;;;;;;;;11.99;61.91;101258.13;4940160;28;19918;-53
2022/09/24 01:08:31;;;;;;;;;;;;;;;11.99;62.06;101258.97;4940897;29;19926;-53
2022/09/24 01:11:08;;;;;;;;;;;;;;;12.00;62.03;101257.19;4941090;28;19926;-53
2022/09/24 01:13:54;;;;;;;;;;;;;;;12.02;61.80;101252.69;4941301;28;19951;-54
2022/09/24 01:16:25;;;;;;;;;;;;;;;12.03;61.78;101249.09;4936683;28;19927;-56
2022/09/24 01:18:57;;;;;;;;;;;;;;;12.04;61.98;101250.78;4924070;29;20471;-55
2022/09/24 01:21:22;;;;;;;;;;;;;;;12.03;62.02;101251.72;4940552;28;20869;-53
2022/09/24 01:24:06;;;;;;;;;;;;;;;12.02;62.00;101242.13;4938788;28;19919;-53
2022/09/24 01:26:55;;;;;;;;;;;;;;;12.01;61.96;101241.28;4944650;28;19974;-53
2022/09/24 01:29:40;;;;;;;;;;;;;;;12.02;61.96;101239.50;4940493;28;20013;-54
2022/09/24 01:32:06;;;;;;;;;;;;;;;12.02;61.79;101235.06;4939166;29;19926;-53
2022/09/24 01:34:41;;;;;;;;;;;;;;;12.02;61.86;101236.88;4941160;28;19933;-54
2022/09/24 01:37:07;;;;;;;;;;;;;;;12.01;61.92;101230.72;4939920;29;19918;-53
2022/09/24 01:39:34;;;;;;;;;;;;;;;12.00;62.15;101228.19;4939209;28;19937;-53
2022/09/24 01:42:00;;;;;;;;;;;;;;;11.98;61.91;101220.34;4945645;28;20398;-53
2022/09/24 01:44:25;;;;;;;;;;;;;;;11.97;62.10;101223.03;4944727;28;19933;-54
2022/09/24 01:46:51;;;;;;;;;;;;;;;11.96;62.09;101216.06;4944257;28;19934;-54
2022/09/24 01:49:17;;;;;;;;;;;;;;;11.94;62.18;101213.53;4941779;28;19937;-53
2022/09/24 01:51:43;;;;;;;;;;;;;;;11.95;62.24;101217.00;4946496;28;20867;-54
2022/09/24 01:54:14;;;;;;;;;;;;;;;11.94;62.11;101215.28;4946977;28;19923;-54
2022/09/24 01:56:49;;;;;;;;;;;;;;;11.94;62.21;101210.00;4945103;28;19919;-53
2022/09/24 01:59:29;;;;;;;;;;;;;;;11.95;62.07;101214.34;4943110;28;19938;-55
2022/09/24 02:02:00;;;;;;;;;;;;;;;11.94;62.04;101213.53;4938629;28;19941;-53
2022/09/24 02:04:27;;;;;;;;;;;;;;;11.94;61.94;101207.38;4941284;28;19919;-54
2022/09/24 02:06:59;;;;;;;;;;;;;;;11.95;62.01;101211.72;4944382;28;19925;-54
2022/09/24 02:09:34;;;;;;;;;;;;;;;11.95;62.22;101209.09;4939903;28;20392;-53
2022/09/24 02:12:09;;;;;;;;;;;;;;;11.95;62.16;101211.72;4940378;28;20271;-54
2022/09/24 02:14:37;;;;;;;;;;;;;;;11.95;62.00;101215.19;4942670;28;19927;-55
2022/09/24 02:17:04;;;;;;;;;;;;;;;11.96;62.02;101213.41;4944419;28;19927;-53
2022/09/24 02:19:30;;;;;;;;;;;;;;;11.97;62.16;101207.22;4950149;28;20310;-53
2022/09/24 02:21:56;;;;;;;;;;;;;;;11.98;61.83;101208.91;4948056;28;19963;-53
2022/09/24 02:24:27;;;;;;;;;;;;;;;11.98;62.02;101211.56;4942417;28;19926;-55
2022/09/24 02:26:53;;;;;;;;;;;;;;;11.98;62.07;101203.63;4937102;28;20031;-53
2022/09/24 02:29:19;;;;;;;;;;;;;;;11.97;62.00;101199.31;4942966;28;20636;-54
2022/09/24 02:31:46;;;;;;;;;;;;;;;11.96;62.10;101197.59;4940900;28;19922;-53
2022/09/24 02:34:20;;;;;;;;;;;;;;;11.95;62.11;101188.00;4937984;28;19926;-53
2022/09/24 02:36:46;;;;;;;;;;;;;;;11.94;62.08;101191.56;4944985;28;19938;-54
2022/09/24 02:39:12;;;;;;;;;;;;;;;11.94;62.10;101186.28;4947419;28;19922;-53
2022/09/24 02:41:38;;;;;;;;;;;;;;;11.93;62.04;101185.44;4944965;28;19937;-55
2022/09/24 02:44:03;;;;;;;;;;;;;;;11.92;62.15;101183.75;4946383;28;19919;-54
2022/09/24 02:46:29;;;;;;;;;;;;;;;11.92;62.22;101182.88;4947525;28;20017;-53
2022/09/24 02:48:54;;;;;;;;;;;;;;;11.89;62.19;101176.84;4948462;28;19930;-53
2022/09/24 02:51:20;;;;;;;;;;;;;;;11.89;62.15;101179.47;4942793;28;19925;-54
2022/09/24 02:53:46;;;;;;;;;;;;;;;11.89;62.02;101178.63;4940711;28;20013;-54
2022/09/24 02:56:11;;;;;;;;;;;;;;;11.88;62.03;101177.78;4940250;28;19980;-55
2022/09/24 02:58:36;;;;;;;;;;;;;;;11.88;62.13;101177.78;4938719;28;19934;-54
2022/09/24 03:01:02;;;;;;;;;;;;;;;11.89;62.34;101174.19;4940581;28;19926;-53
2022/09/24 03:03:28;;;;;;;;;;;;;;;11.90;62.21;101177.69;4941346;28;20405;-53
2022/09/24 03:05:53;;;;;;;;;;;;;;;11.90;62.02;101175.06;4944611;28;19926;-53
2022/09/24 03:08:26;;;;;;;;;;;;;;;11.90;62.13;101175.91;4938874;28;20048;-53
2022/09/24 03:10:51;;;;;;;;;;;;;;;11.89;62.25;101174.19;4935907;28;19937;-53
2022/09/24 03:13:17;;;;;;;;;;;;;;;11.89;62.23;101174.19;4939139;28;19934;-55
2022/09/24 03:15:46;;;;;;;;;;;;;;;11.90;62.21;101175.91;4937878;28;19933;-53
2022/09/24 03:18:12;;;;;;;;;;;;;;;11.90;62.25;101170.63;4938508;28;19945;-53
2022/09/24 03:20:37;;;;;;;;;;;;;;;11.93;62.25;101172.25;4946475;28;20373;-54
2022/09/24 03:23:03;;;;;;;;;;;;;;;11.94;62.27;101170.47;4946327;28;19931;-55
2022/09/24 03:25:28;;;;;;;;;;;;;;;11.94;62.29;101178.38;4939040;28;19922;-54
2022/09/24 03:27:54;;;;;;;;;;;;;;;11.93;62.28;101174.91;4938390;28;19926;-55
2022/09/24 03:33:03;;;;;;;;;;;;;;;11.96;62.15;101173.88;4936198;28;19928;-52
2022/09/24 03:35:28;;;;;;;;;;;;;;;11.96;62.19;101171.22;4945250;28;19927;-55
2022/09/24 03:37:54;;;;;;;;;;;;;;;11.96;62.38;101174.69;4941007;28;19926;-54
2022/09/24 03:40:19;;;;;;;;;;;;;;;11.97;62.33;101170.28;4923845;28;20378;-53
2022/09/24 03:42:44;;;;;;;;;;;;;;;11.97;62.34;101171.13;4936971;28;19931;-53
2022/09/24 03:45:10;;;;;;;;;;;;;;;11.97;62.22;101160.56;4940708;28;19958;-53
2022/09/24 03:47:36;;;;;;;;;;;;;;;12.00;62.20;101172.78;4938709;28;19965;-53
2022/09/24 03:50:01;;;;;;;;;;;;;;;11.99;62.45;101163.19;4936822;28;19966;-56
2022/09/24 03:52:27;;;;;;;;;;;;;;;12.00;62.30;101164.88;4942934;28;19927;-53
2022/09/24 03:54:52;;;;;;;;;;;;;;;12.01;62.27;101163.94;4931917;28;19973;-53
2022/09/24 03:57:17;;;;;;;;;;;;;;;12.00;62.24;101159.59;4939280;29;19958;-54
2022/09/24 03:59:43;;;;;;;;;;;;;;;11.99;62.33;101164.00;4939970;29;19935;-53
2022/09/24 04:02:09;;;;;;;;;;;;;;;12.00;62.44;101162.25;4943295;28;20061;-53
2022/09/24 04:04:34;;;;;;;;;;;;;;;12.00;62.54;101159.59;4941913;28;19942;-55
2022/09/24 04:07:00;;;;;;;;;;;;;;;12.02;62.42;101160.38;4941572;29;19930;-53
2022/09/24 04:09:25;;;;;;;;;;;;;;;12.04;62.45;101150.56;4928226;29;19973;-52
2022/09/24 04:11:53;;;;;;;;;;;;;;;12.06;62.39;101156.59;4946974;28;20305;-54
2022/09/24 04:14:19;;;;;;;;;;;;;;;12.06;62.18;101155.75;4940916;28;20298;-53
2022/09/24 04:16:45;;;;;;;;;;;;;;;12.05;62.58;101152.25;4947267;28;19923;-53
2022/09/24 04:19:11;;;;;;;;;;;;;;;12.07;62.46;101150.38;4949321;28;20287;-54
2022/09/24 04:21:36;;;;;;;;;;;;;;;12.07;62.46;101155.66;4950542;28;19918;-54
2022/09/24 04:24:02;;;;;;;;;;;;;;;12.07;62.38;101146.91;4943170;28;20549;-53
2022/09/24 04:26:27;;;;;;;;;;;;;;;12.06;62.59;101151.31;4940775;29;20283;-53
2022/09/24 04:28:53;;;;;;;;;;;;;;;12.06;62.51;101153.97;4944662;29;19973;-54
2022/09/24 04:31:18;;;;;;;;;;;;;;;12.06;62.53;101156.59;4940106;28;20369;-53
2022/09/24 04:33:43;;;;;;;;;;;;;;;12.06;62.42;101148.69;4943680;28;20009;-55
2022/09/24 04:36:09;;;;;;;;;;;;;;;12.07;62.39;101150.38;4948682;28;19927;-54
2022/09/24 04:38:34;;;;;;;;;;;;;;;12.07;62.53;101147.75;4946365;29;21411;-53
2022/09/24 04:41:03;;;;;;;;;;;;;;;12.08;62.58;101149.44;4940156;29;19946;-54
2022/09/24 04:43:29;;;;;;;;;;;;;;;12.08;62.56;101148.63;4937930;28;20397;-52
2022/09/24 04:45:55;;;;;;;;;;;;;;;12.08;62.49;101146.81;4941509;29;19927;-54
2022/09/24 04:48:22;;;;;;;;;;;;;;;12.09;62.66;101152.97;4941719;28;19926;-52
2022/09/24 04:50:47;;;;;;;;;;;;;;;12.09;62.61;101152.97;4941977;28;20175;-53
2022/09/24 04:53:13;;;;;;;;;;;;;;;12.09;62.70;101148.50;4949001;29;20446;-53
2022/09/24 04:55:38;;;;;;;;;;;;;;;12.10;62.67;101147.56;4943515;29;19958;-53
2022/09/24 04:58:04;;;;;;;;;;;;;;;12.12;62.60;101147.47;4943546;28;20267;-54
2022/09/24 05:00:32;;;;;;;;;;;;;;;12.11;62.73;101144.00;4943534;28;19922;-53
2022/09/24 05:02:58;;;;;;;;;;;;;;;12.09;62.75;101148.50;4942404;28;19937;-53
2022/09/24 05:05:23;;;;;;;;;;;;;;;12.09;62.67;101145.88;4940624;28;19919;-55
2022/09/24 05:07:50;;;;;;;;;;;;;;;12.10;62.77;101149.38;4947669;28;19981;-53
2022/09/24 05:10:15;;;;;;;;;;;;;;;12.10;62.83;101142.31;4942419;28;19923;-54
2022/09/24 05:12:40;;;;;;;;;;;;;;;12.11;62.87;101151.06;4936956;28;19926;-53
2022/09/24 05:15:06;;;;;;;;;;;;;;;12.11;62.82;101151.06;4941185;28;19922;-53
2022/09/24 05:17:31;;;;;;;;;;;;;;;12.11;62.83;101151.06;4940916;28;20017;-53
2022/09/24 05:19:58;;;;;;;;;;;;;;;12.11;62.76;101157.19;4947794;28;20219;-57
2022/09/24 05:22:26;;;;;;;;;;;;;;;12.10;62.80;101144.09;4941949;28;20971;-52
2022/09/24 05:24:53;;;;;;;;;;;;;;;12.10;62.64;101149.38;4943561;28;19930;-53
2022/09/24 05:27:20;;;;;;;;;;;;;;;12.09;62.47;101148.50;4944116;28;20005;-53
2022/09/24 05:29:46;;;;;;;;;;;;;;;12.12;62.73;101153.63;4940563;28;19949;-54
2022/09/24 05:32:13;;;;;;;;;;;;;;;12.11;62.84;101149.28;4944587;28;19942;-53
2022/09/24 05:34:40;;;;;;;;;;;;;;;12.13;62.84;101152.69;4940096;28;20342;-52
2022/09/24 05:37:05;;;;;;;;;;;;;;;12.14;62.72;101146.47;4938128;28;20544;-53
2022/09/24 05:39:31;;;;;;;;;;;;;;;12.16;62.85;101146.38;4942661;29;19950;-53
2022/09/24 05:41:57;;;;;;;;;;;;;;;12.18;62.78;101149.78;4935873;28;20065;-53
2022/09/24 05:44:22;;;;;;;;;;;;;;;12.18;62.89;101161.16;4939881;28;19925;-53
2022/09/24 05:46:48;;;;;;;;;;;;;;;12.20;62.94;101161.94;4940812;28;19927;-53
2022/09/24 05:49:13;;;;;;;;;;;;;;;12.24;62.83;101167.03;4943198;29;20370;-53
2022/09/24 05:51:39;;;;;;;;;;;;;;;12.24;62.82;101161.75;4939282;28;19978;-53
2022/09/24 05:54:04;;;;;;;;;;;;;;;12.26;62.84;101163.34;4939736;29;20437;-52
2022/09/24 05:56:30;;;;;;;;;;;;;;;12.27;62.70;101156.31;4936489;28;20329;-54
2022/09/24 05:58:55;;;;;;;;;;;;;;;12.28;62.68;101153.56;4937284;28;19935;-53
2022/09/24 06:01:20;;;;;;;;;;;;;;;12.30;62.57;101156.13;4920280;29;20306;-53
2022/09/24 06:03:45;;;;;;;;;;;;;;;12.31;62.69;101158.66;4938847;29;19919;-54
2022/09/24 06:06:11;;;;;;;;;;;;;;;12.33;62.83;101163.84;4938199;29;19923;-53
2022/09/24 06:08:36;;;;;;;;;;;;;;;12.35;62.90;101162.84;4932262;28;19931;-52
2022/09/24 06:11:04;;;;;;;;;;;;;;;12.38;62.65;101159.16;4929982;29;19961;-54
2022/09/24 06:13:30;;;;;;;;;;;;;;;12.40;62.65;101162.56;4943180;28;19922;-52
2022/09/24 06:15:59;;;;;;;;;;;;;;;12.42;62.84;101160.69;4936430;28;19951;-53
2022/09/24 06:18:24;;;;;;;;;;;;;;;12.44;62.58;101164.09;4924497;28;19989;-55
2022/09/24 06:20:50;;;;;;;;;;;;;;;12.46;62.80;101162.22;4944724;28;19975;-53
2022/09/24 06:23:15;;;;;;;;;;;;;;;12.49;62.84;101159.38;4948722;28;19941;-54
2022/09/24 06:25:40;;;;;;;;;;;;;;;12.52;62.63;101168.91;4938146;29;19925;-55
2022/09/24 06:28:06;;;;;;;;;;;;;;;12.54;62.48;101163.53;4941009;28;19922;-52
2022/09/24 06:30:33;;;;;;;;;;;;;;;12.57;62.68;101163.34;4938282;28;20371;-52
2022/09/24 06:33:05;;;;;;;;;;;;;;;12.60;62.56;101163.19;4945663;28;19922;-53
2022/09/24 06:35:34;;;;;;;;;;;;;;;12.63;62.74;101166.47;4943901;28;19933;-54
2022/09/24 06:38:00;;;;;;;;;;;;;;;12.67;62.26;101164.50;4937508;28;19926;-54
2022/09/24 06:40:25;;;;;;;;;;;;;;;12.69;62.67;101165.25;4933553;28;19922;-54
2022/09/24 06:42:51;;;;;;;;;;;;;;;12.73;62.67;101169.41;4944642;28;19946;-53
2022/09/24 06:45:17;;;;;;;;;;;;;;;12.76;62.47;101163.09;4940521;28;19985;-54
2022/09/24 06:47:42;;;;;;;;;;;;;;;12.79;62.59;101165.56;4936059;28;19993;-52
2022/09/24 06:50:08;;;;;;;;;;;;;;;12.82;62.55;101162.75;4928944;28;20511;-55
2022/09/24 06:52:33;;;;;;;;;;;;;;;12.85;62.57;101165.19;4937171;28;19926;-53
2022/09/24 06:54:58;;;;;;;;;;;;;;;12.87;62.47;101163.28;4930950;28;20026;-53
2022/09/24 06:57:24;;;;;;;;;;;;;;;12.91;62.61;101166.63;4936476;29;19955;-53
2022/09/24 06:59:50;;;;;;;;;;;;;;;12.94;62.41;101167.28;4935063;28;20278;-53
2022/09/24 07:02:16;;;;;;;;;;;;;;;12.96;62.31;101161.88;4932978;28;20038;-54
2022/09/24 07:04:41;;;;;;;;;;;;;;;13.00;62.36;101176.59;4936461;29;20033;-53
2022/09/24 07:09:50;;;;;;;;;;;;;;;13.04;62.27;101171.97;4934675;28;19969;-54
2022/09/24 07:12:15;;;;;;;;;;;;;;;13.05;62.15;101174.53;4938121;28;19973;-52
2022/09/24 07:14:40;;;;;;;;;;;;;;;13.07;62.15;101177.09;4939308;28;20006;-55
2022/09/24 07:17:06;;;;;;;;;;;;;;;13.08;62.33;101174.34;4944883;28;19922;-53
2022/09/24 07:19:31;;;;;;;;;;;;;;;13.10;62.16;101175.09;4939844;28;20021;-52
2022/09/24 07:21:56;;;;;;;;;;;;;;;13.14;62.38;101175.78;4924077;28;19937;-53
2022/09/24 07:24:22;;;;;;;;;;;;;;;13.16;62.24;101176.50;4938967;28;19930;-54
2022/09/24 07:26:47;;;;;;;;;;;;;;;13.19;62.36;101178.97;4938723;29;19927;-52
2022/09/24 07:29:12;;;;;;;;;;;;;;;13.22;62.10;101185.88;4938446;28;19923;-53
2022/09/24 07:31:38;;;;;;;;;;;;;;;13.24;62.19;101190.09;4939055;28;20037;-53
2022/09/24 07:34:05;;;;;;;;;;;;;;;13.25;62.26;101189.16;4935322;28;19966;-53
2022/09/24 07:36:30;;;;;;;;;;;;;;;13.28;62.14;101185.47;4941136;28;19926;-54
2022/09/24 07:38:56;;;;;;;;;;;;;;;13.30;62.10;101182.75;4934008;29;19934;-53
2022/09/24 07:41:22;;;;;;;;;;;;;;;13.33;61.95;101186.03;4942523;28;20433;-56
2022/09/24 07:43:47;;;;;;;;;;;;;;;13.36;61.73;101193.78;4937685;28;20413;-53
2022/09/24 07:46:12;;;;;;;;;;;;;;;13.39;61.68;101188.28;4939090;28;19933;-52
2022/09/24 07:48:38;;;;;;;;;;;;;;;13.44;61.63;101195.13;4944182;28;19930;-53
2022/09/24 07:51:04;;;;;;;;;;;;;;;13.48;61.47;101196.63;4942542;28;19926;-54
2022/09/24 07:53:30;;;;;;;;;;;;;;;13.50;61.48;101200.88;4941539;28;19965;-54
2022/09/24 07:55:57;;;;;;;;;;;;;;;13.54;61.52;101207.66;4943612;28;19953;-53
2022/09/24 07:58:23;;;;;;;;;;;;;;;13.59;61.36;101204.72;4941448;29;19923;-53
2022/09/24 08:00:48;;;;;;;;;;;;;;;13.63;61.40;101208.88;4943940;29;20022;-53
2022/09/24 08:03:14;;;;;;;;;;;;;;;13.68;61.38;101206.81;4937155;29;20052;-52
2022/09/24 08:05:44;;;;;;;;;;;;;;;13.72;61.20;101208.28;4940991;28;19918;-53
2022/09/24 08:08:09;;;;;;;;;;;;;;;13.76;61.28;101205.47;4947268;28;19933;-53
2022/09/24 08:10:34;;;;;;;;;;;;;;;13.81;61.13;101204.22;4948271;28;19922;-53
2022/09/24 08:13:01;;;;;;;;;;;;;;;13.85;61.17;101202.22;4950896;28;19988;-53
2022/09/24 08:15:26;;;;;;;;;;;;;;;13.89;60.99;101209.00;4922345;29;19934;-54
2022/09/24 08:17:52;;;;;;;;;;;;;;;13.94;61.00;101209.56;4947547;28;19918;-53
2022/09/24 08:20:17;;;;;;;;;;;;;;;13.98;60.85;101216.38;4950067;28;19922;-53
2022/09/24 08:22:42;;;;;;;;;;;;;;;14.02;60.90;101211.72;4949027;28;19933;-53
2022/09/24 08:25:08;;;;;;;;;;;;;;;14.07;60.81;101208.78;4942917;28;20036;-55
2022/09/24 08:27:35;;;;;;;;;;;;;;;14.12;60.68;101209.34;4940927;28;19958;-54
2022/09/24 08:30:01;;;;;;;;;;;;;;;14.16;60.61;101208.16;4943450;28;19931;-53
2022/09/24 08:32:28;;;;;;;;;;;;;;;14.17;60.50;101201.91;4941065;28;20290;-55
2022/09/24 08:34:53;;;;;;;;;;;;;;;14.22;60.47;101210.41;4937312;28;19972;-53
2022/09/24 08:37:18;;;;;;;;;;;;;;;14.25;60.39;101209.34;4939002;28;20053;-52
2022/09/24 08:39:44;;;;;;;;;;;;;;;14.28;60.42;101210.03;4944944;29;20451;-52
2022/09/24 08:42:13;;;;;;;;;;;;;;;14.33;60.28;101204.41;4941113;28;19941;-55
2022/09/24 08:47:36;;;;;;;;;;;;;;;14.42;60.14;101202.97;4939533;28;19953;-53
2022/09/24 08:50:08;;;;;;;;;;;;;;;14.46;60.09;101204.44;4943264;28;19974;-52
2022/09/24 08:52:42;;;;;;;;;;;;;;;14.48;60.07;101192.81;4944745;28;20449;-54
2022/09/24 08:55:13;;;;;;;;;;;;;;;14.53;60.18;101202.22;4940329;28;19948;-59
2022/09/24 08:57:46;;;;;;;;;;;;;;;14.58;60.15;101202.75;4939604;29;20409;-53
2022/09/24 09:00:14;;;;;;;;;;;;;;;14.63;60.15;101206.78;4935386;28;19969;-53
2022/09/24 09:02:50;;;;;;;;;;;;;;;14.69;60.09;101200.25;4942700;28;19930;-52
2022/09/24 09:05:26;;;;;;;;;;;;;;;14.73;60.15;101207.06;4946713;28;19918;-54
2022/09/24 09:07:54;;;;;;;;;;;;;;;14.79;60.04;101216.38;4940611;28;19919;-55
2022/09/24 09:10:27;;;;;;;;;;;;;;;14.81;60.04;101214.47;4946742;28;19925;-53
2022/09/24 09:12:56;;;;;;;;;;;;;;;14.86;60.05;101214.16;4941316;28;19919;-52
2022/09/24 09:15:42;;;;;;;;;;;;;;;14.91;60.08;101212.88;4943537;29;19918;-54
2022/09/24 09:18:27;;;;;;;;;;;;;;;14.97;60.04;101213.44;4949093;28;19922;-52
2022/09/24 09:20:55;;;;;;;;;;;;;;;15.03;59.99;101213.03;4939754;28;20025;-52
2022/09/24 09:23:21;;;;;;;;;;;;;;;15.06;60.08;101212.78;4948686;28;19929;-53
2022/09/24 09:25:51;;;;;;;;;;;;;;;15.09;59.95;101221.41;4945131;28;19926;-55
2022/09/24 09:28:17;;;;;;;;;;;;;;;15.15;59.83;101217.47;4939946;28;19926;-53
2022/09/24 09:30:49;;;;;;;;;;;;;;;15.17;59.82;101215.56;4940644;28;19929;-53
2022/09/24 09:33:14;;;;;;;;;;;;;;;15.23;59.62;101219.59;4949776;28;20307;-53
2022/09/24 09:35:40;;;;;;;;;;;;;;;15.27;59.72;101214.91;4942531;29;19926;-53
2022/09/24 09:38:22;;;;;;;;;;;;;;;15.28;59.76;101212.13;4942137;28;19946;-54
2022/09/24 09:40:52;;;;;;;;;;;;;;;15.31;59.72;101208.44;4938762;28;20009;-52
2022/09/24 09:43:18;;;;;;;;;;;;;;;15.33;59.73;101206.53;4942225;29;19919;-52
2022/09/24 09:45:43;;;;;;;;;;;;;;;15.35;59.71;101209.94;4941519;28;19915;-53
2022/09/24 09:48:13;;;;;;;;;;;;;;;15.38;59.83;101213.19;4944034;28;20375;-53
2022/09/24 09:50:43;;;;;;;;;;;;;;;15.42;59.65;101208.53;4944049;28;20390;-52
2022/09/24 09:53:20;;;;;;;;;;;;;;;15.44;59.59;101203.97;4938399;29;20367;-53
2022/09/24 09:55:50;;;;;;;;;;;;;;;15.49;59.49;101206.28;4942177;28;20113;-55
2022/09/24 09:58:42;;;;;;;;;;;;;;;15.51;59.48;101202.56;4941278;28;19959;-52
2022/09/24 10:01:09;;;;;;;;;;;;;;;15.57;59.47;101203.06;4938952;28;19918;-53
2022/09/24 10:03:45;;;;;;;;;;;;;;;15.60;59.44;101200.22;4942225;28;19934;-53
2022/09/24 10:06:11;;;;;;;;;;;;;;;15.62;59.50;101203.59;4940799;28;19926;-54
2022/09/24 10:08:37;;;;;;;;;;;;;;;15.64;59.46;101197.22;4930529;28;20421;-53
2022/09/24 10:11:02;;;;;;;;;;;;;;;15.67;59.33;101193.50;4936248;28;19958;-54
2022/09/24 10:13:30;;;;;;;;;;;;;;;15.71;59.36;101208.25;4935402;28;20038;-54
2022/09/24 10:16:07;;;;;;;;;;;;;;;15.74;59.35;101197.41;4931081;28;20447;-52
2022/09/24 10:18:45;;;;;;;;;;;;;;;15.76;59.22;101206.09;4944451;28;19927;-53
2022/09/24 10:21:12;;;;;;;;;;;;;;;15.78;59.21;101204.19;4935629;28;19981;-54
2022/09/24 10:23:39;;;;;;;;;;;;;;;15.79;59.25;101202.38;4938516;28;19985;-53
2022/09/24 10:26:05;;;;;;;;;;;;;;;15.81;59.24;101203.13;4936187;28;19956;-52
2022/09/24 10:31:19;;;;;;;;;;;;;;;15.84;59.22;101195.78;4944980;28;19965;-52
2022/09/24 10:33:45;;;;;;;;;;;;;;;15.85;59.03;101200.16;4944168;28;19985;-52
2022/09/24 10:36:15;;;;;;;;;;;;;;;15.86;59.04;101201.03;4945268;28;20354;-53
2022/09/24 10:38:42;;;;;;;;;;;;;;;15.88;58.99;101203.56;4946958;29;20386;-54
2022/09/24 10:41:22;;;;;;;;;;;;;;;15.91;58.98;101203.34;4945073;29;19984;-53
2022/09/24 10:43:54;;;;;;;;;;;;;;;15.92;58.97;101199.72;4946183;28;19925;-53
2022/09/24 10:46:46;;;;;;;;;;;;;;;15.92;59.04;101197.91;4944257;29;19924;-52
2022/09/24 10:49:26;;;;;;;;;;;;;;;15.96;58.83;101198.50;4900563;29;19919;-53
2022/09/24 10:52:01;;;;;;;;;;;;;;;15.98;58.90;101189.50;4948815;29;20335;-53
2022/09/24 10:54:38;;;;;;;;;;;;;;;16.00;58.96;101198.19;4945686;29;19965;-52
2022/09/24 10:57:10;;;;;;;;;;;;;;;16.03;58.82;101196.28;4945399;29;20023;-54
2022/09/24 10:59:46;;;;;;;;;;;;;;;16.05;58.75;101195.19;4947107;28;19923;-55
2022/09/24 11:02:11;;;;;;;;;;;;;;;16.08;58.64;101188.81;4939307;28;19926;-54
2022/09/24 11:04:43;;;;;;;;;;;;;;;16.11;58.65;101193.91;4945734;28;20001;-53
2022/09/24 11:07:12;;;;;;;;;;;;;;;16.13;58.72;101191.97;4944698;28;20526;-54
2022/09/24 11:09:49;;;;;;;;;;;;;;;16.16;58.53;101191.75;4936148;29;19934;-52
2022/09/24 11:12:22;;;;;;;;;;;;;;;16.20;58.46;101187.06;4950997;28;20061;-53
2022/09/24 11:14:56;;;;;;;;;;;;;;;16.23;58.46;101189.50;4947973;28;19925;-52
2022/09/24 11:17:36;;;;;;;;;;;;;;;16.24;58.45;101178.75;4934408;29;19922;-53
2022/09/24 11:20:10;;;;;;;;;;;;;;;16.28;58.37;101184.66;4945116;29;19922;-53
2022/09/24 11:22:35;;;;;;;;;;;;;;;16.31;58.28;101181.78;4947952;29;19926;-53
2022/09/24 11:25:18;;;;;;;;;;;;;;;16.35;58.20;101185.91;4946595;28;19918;-52
2022/09/24 11:27:44;;;;;;;;;;;;;;;16.38;58.05;101177.72;4949337;28;19946;-53
2022/09/24 11:30:15;;;;;;;;;;;;;;;16.41;57.99;101180.13;4950683;28;19919;-53
2022/09/24 11:32:43;;;;;;;;;;;;;;;16.42;57.85;101179.16;4947926;29;19959;-53
2022/09/24 11:35:22;;;;;;;;;;;;;;;16.44;57.76;101174.56;4947635;28;19925;-53
2022/09/24 11:38:06;;;;;;;;;;;;;;;16.45;57.74;101175.44;4953508;28;19915;-54
2022/09/24 11:40:31;;;;;;;;;;;;;;;16.44;57.83;101166.59;4951498;28;19929;-56
2022/09/24 11:43:01;;;;;;;;;;;;;;;16.46;57.73;101174.47;4948469;29;19926;-54
2022/09/24 11:45:33;;;;;;;;;;;;;;;16.47;57.84;101173.53;4951895;29;20464;-53
2022/09/24 11:48:10;;;;;;;;;;;;;;;16.48;57.55;101179.66;4949990;29;19945;-53
2022/09/24 11:50:44;;;;;;;;;;;;;;;16.49;57.67;101181.34;4949627;28;20013;-53
2022/09/24 11:53:16;;;;;;;;;;;;;;;16.49;57.69;101181.34;4950817;29;19926;-53
2022/09/24 11:55:49;;;;;;;;;;;;;;;16.49;57.67;101179.53;4950088;28;19926;-53
2022/09/24 11:58:18;;;;;;;;;;;;;;;16.51;57.78;101174.94;4948764;29;19927;-53
2022/09/24 12:00:48;;;;;;;;;;;;;;;16.52;57.83;101181.97;4946032;28;19922;-53
2022/09/24 12:03:21;;;;;;;;;;;;;;;16.53;57.83;101181.00;4946155;28;19927;-55
2022/09/24 12:05:50;;;;;;;;;;;;;;;16.55;57.73;101187.03;4950975;28;19918;-52
2022/09/24 12:08:15;;;;;;;;;;;;;;;16.56;57.80;101186.09;4948375;28;19926;-52
2022/09/24 12:10:47;;;;;;;;;;;;;;;16.58;57.91;101180.66;4953155;28;19937;-53
2022/09/24 12:13:37;;;;;;;;;;;;;;;16.59;57.72;101182.34;4952612;28;19919;-53
2022/09/24 12:16:11;;;;;;;;;;;;;;;16.58;57.94;101183.31;4941778;28;19926;-53
2022/09/24 12:18:51;;;;;;;;;;;;;;;16.58;57.82;101185.97;4931659;28;19942;-54
2022/09/24 12:21:29;;;;;;;;;;;;;;;16.58;58.16;101184.16;4950098;28;20025;-53
2022/09/24 12:24:00;;;;;;;;;;;;;;;16.60;58.18;101186.69;4944716;28;19981;-53
2022/09/24 12:26:27;;;;;;;;;;;;;;;16.63;58.31;101188.28;4949583;28;19918;-53
2022/09/24 12:34:50;;;;;;;;;;;;;;;16.67;58.48;101182.63;4950391;28;19932;-53
2022/09/24 12:37:19;;;;;;;;;;;;;;;16.69;58.62;101183.34;4948716;29;20291;-53
2022/09/24 12:39:52;;;;;;;;;;;;;;;16.68;58.66;101179.00;4953693;28;19993;-53
2022/09/24 12:42:19;;;;;;;;;;;;;;;16.72;58.46;101179.59;4949853;28;20014;-54
2022/09/24 12:44:56;;;;;;;;;;;;;;;16.75;58.56;101176.72;4938917;28;19918;-53
2022/09/24 12:47:23;;;;;;;;;;;;;;;16.75;58.62;101177.53;4953277;28;20330;-53
2022/09/24 12:49:53;;;;;;;;;;;;;;;16.77;58.71;101172.13;4952029;28;20013;-53
2022/09/24 12:52:24;;;;;;;;;;;;;;;16.79;58.68;101172.00;4951789;28;19926;-53
2022/09/24 12:55:01;;;;;;;;;;;;;;;16.82;58.80;101172.59;4950564;29;19922;-53
2022/09/24 12:57:29;;;;;;;;;;;;;;;16.83;58.97;101171.63;4948564;29;20309;-53
2022/09/24 12:59:54;;;;;;;;;;;;;;;16.84;58.88;101160.03;4951109;29;19926;-53